sensor_id;sensor_type;location;lat;lon;timestamp;temperature;humidity
76203;DHT22;64985;46.364;17.008;2023-10-09T00:02:47;8.40;99.90
76203;DHT22;64985;46.364;17.008;2023-10-09T00:05:51;8.50;99.90
76203;DHT22;64985;46.364;17.008;2023-10-09T00:08:56;8.50;99.90
76203;DHT22;64985;46.364;17.008;2023-10-09T00:11:58;8.60;99.90
76203;DHT22;64985;46.364;17.008;2023-10-09T00:15:02;8.50;99.90
76203;DHT22;64985;46.364;17.008;2023-10-09T00:18:13;8.50;99.90
76203;DHT22;64985;46.364;17.008;2023-10-09T00:21:16;8.50;99.90
76203;DHT22;64985;46.364;17.008;2023-10-09T00:24:22;8.70;99.90
76203;DHT22;64985;46.364;17.008;2023-10-09T00:27:26;8.70;99.90
76203;DHT22;64985;46.364;17.008;2023-10-09T00:30:33;8.70;99.90
76203;DHT22;64985;46.364;17.008;2023-10-09T00:33:37;8.70;99.90
76203;DHT22;64985;46.364;17.008;2023-10-09T00:36:40;8.70;99.90
76203;DHT22;64985;46.364;17.008;2023-10-09T00:39:53;8.80;99.90
76203;DHT22;64985;46.364;17.008;2023-10-09T00:42:59;8.80;99.90
76203;DHT22;64985;46.364;17.008;2023-10-09T00:46:08;9.00;99.90
76203;DHT22;64985;46.364;17.008;2023-10-09T00:49:18;9.10;99.90
76203;DHT22;64985;46.364;17.008;2023-10-09T00:52:25;9.20;99.90
76203;DHT22;64985;46.364;17.008;2023-10-09T00:55:34;9.20;99.90
76203;DHT22;64985;46.364;17.008;2023-10-09T00:58:48;9.20;99.90
76203;DHT22;64985;46.364;17.008;2023-10-09T01:01:57;9.20;99.90
76203;DHT22;64985;46.364;17.008;2023-10-09T01:05:07;9.20;99.90
76203;DHT22;64985;46.364;17.008;2023-10-09T01:08:23;9.10;99.90
76203;DHT22;64985;46.364;17.008;2023-10-09T01:11:44;9.10;99.90
76203;DHT22;64985;46.364;17.008;2023-10-09T01:14:50;9.10;99.90
76203;DHT22;64985;46.364;17.008;2023-10-09T01:17:58;9.10;99.90
76203;DHT22;64985;46.364;17.008;2023-10-09T01:21:01;9.10;99.90
76203;DHT22;64985;46.364;17.008;2023-10-09T01:24:05;9.10;99.90
76203;DHT22;64985;46.364;17.008;2023-10-09T01:27:13;9.10;99.90
76203;DHT22;64985;46.364;17.008;2023-10-09T01:30:19;9.10;99.90
76203;DHT22;64985;46.364;17.008;2023-10-09T01:33:22;8.90;99.90
76203;DHT22;64985;46.364;17.008;2023-10-09T01:36:26;8.90;99.90
76203;DHT22;64985;46.364;17.008;2023-10-09T01:39:34;8.90;99.90
76203;DHT22;64985;46.364;17.008;2023-10-09T01:42:43;9.00;99.90
76203;DHT22;64985;46.364;17.008;2023-10-09T01:45:49;9.00;99.90
76203;DHT22;64985;46.364;17.008;2023-10-09T01:48:54;9.00;99.90
76203;DHT22;64985;46.364;17.008;2023-10-09T01:51:57;8.90;99.90
76203;DHT22;64985;46.364;17.008;2023-10-09T01:55:03;8.90;99.90
76203;DHT22;64985;46.364;17.008;2023-10-09T01:58:25;8.80;99.90
76203;DHT22;64985;46.364;17.008;2023-10-09T02:01:29;8.80;99.90
76203;DHT22;64985;46.364;17.008;2023-10-09T02:04:34;8.70;99.90
76203;DHT22;64985;46.364;17.008;2023-10-09T02:07:37;8.80;99.90
76203;DHT22;64985;46.364;17.008;2023-10-09T02:10:43;8.90;99.90
76203;DHT22;64985;46.364;17.008;2023-10-09T02:13:51;8.80;99.90
76203;DHT22;64985;46.364;17.008;2023-10-09T02:16:57;8.70;99.90
76203;DHT22;64985;46.364;17.008;2023-10-09T02:20:11;8.70;99.90
76203;DHT22;64985;46.364;17.008;2023-10-09T02:23:20;8.80;99.90
76203;DHT22;64985;46.364;17.008;2023-10-09T02:26:26;8.80;99.90
76203;DHT22;64985;46.364;17.008;2023-10-09T02:29:34;8.90;99.90
76203;DHT22;64985;46.364;17.008;2023-10-09T02:32:44;8.90;99.90
76203;DHT22;64985;46.364;17.008;2023-10-09T02:35:55;8.90;99.90
76203;DHT22;64985;46.364;17.008;2023-10-09T02:39:01;9.00;99.90
76203;DHT22;64985;46.364;17.008;2023-10-09T02:42:08;9.10;99.90
76203;DHT22;64985;46.364;17.008;2023-10-09T02:45:30;9.10;99.90
76203;DHT22;64985;46.364;17.008;2023-10-09T02:48:37;9.00;99.90
76203;DHT22;64985;46.364;17.008;2023-10-09T02:51:44;9.00;99.90
76203;DHT22;64985;46.364;17.008;2023-10-09T02:54:56;9.00;99.90
76203;DHT22;64985;46.364;17.008;2023-10-09T02:58:02;9.00;99.90
76203;DHT22;64985;46.364;17.008;2023-10-09T03:01:12;9.00;99.90
76203;DHT22;64985;46.364;17.008;2023-10-09T03:04:15;8.90;99.90
76203;DHT22;64985;46.364;17.008;2023-10-09T03:07:18;8.80;99.90
76203;DHT22;64985;46.364;17.008;2023-10-09T03:10:23;8.70;99.90
76203;DHT22;64985;46.364;17.008;2023-10-09T03:13:25;8.70;99.90
76203;DHT22;64985;46.364;17.008;2023-10-09T03:16:28;8.60;99.90
76203;DHT22;64985;46.364;17.008;2023-10-09T03:19:33;8.60;99.90
76203;DHT22;64985;46.364;17.008;2023-10-09T03:22:40;8.50;99.90
76203;DHT22;64985;46.364;17.008;2023-10-09T03:25:43;8.30;99.90
76203;DHT22;64985;46.364;17.008;2023-10-09T03:28:48;8.20;99.90
76203;DHT22;64985;46.364;17.008;2023-10-09T03:31:50;8.00;99.90
76203;DHT22;64985;46.364;17.008;2023-10-09T03:34:53;7.90;99.90
76203;DHT22;64985;46.364;17.008;2023-10-09T03:37:58;7.90;99.90
76203;DHT22;64985;46.364;17.008;2023-10-09T03:41:11;7.90;99.90
76203;DHT22;64985;46.364;17.008;2023-10-09T03:44:18;7.90;99.90
76203;DHT22;64985;46.364;17.008;2023-10-09T03:47:20;7.80;99.90
76203;DHT22;64985;46.364;17.008;2023-10-09T03:50:27;7.80;99.90
76203;DHT22;64985;46.364;17.008;2023-10-09T03:53:38;7.80;99.90
76203;DHT22;64985;46.364;17.008;2023-10-09T03:56:44;7.80;99.90
76203;DHT22;64985;46.364;17.008;2023-10-09T03:59:46;7.70;99.90
76203;DHT22;64985;46.364;17.008;2023-10-09T04:02:48;7.70;99.90
76203;DHT22;64985;46.364;17.008;2023-10-09T04:05:53;7.60;99.90
76203;DHT22;64985;46.364;17.008;2023-10-09T04:08:56;7.70;99.90
76203;DHT22;64985;46.364;17.008;2023-10-09T04:12:00;7.60;99.90
76203;DHT22;64985;46.364;17.008;2023-10-09T04:15:12;7.60;99.90
76203;DHT22;64985;46.364;17.008;2023-10-09T04:18:17;7.60;99.90
76203;DHT22;64985;46.364;17.008;2023-10-09T04:21:30;7.50;99.90
76203;DHT22;64985;46.364;17.008;2023-10-09T04:24:39;7.50;99.90
76203;DHT22;64985;46.364;17.008;2023-10-09T04:27:43;7.50;99.90
76203;DHT22;64985;46.364;17.008;2023-10-09T04:30:49;7.60;99.90
76203;DHT22;64985;46.364;17.008;2023-10-09T04:33:58;7.60;99.90
76203;DHT22;64985;46.364;17.008;2023-10-09T04:37:19;7.70;99.90
76203;DHT22;64985;46.364;17.008;2023-10-09T04:40:39;7.60;99.90
76203;DHT22;64985;46.364;17.008;2023-10-09T04:43:48;7.70;99.90
76203;DHT22;64985;46.364;17.008;2023-10-09T04:46:52;7.60;99.90
76203;DHT22;64985;46.364;17.008;2023-10-09T04:50:16;7.60;99.90
76203;DHT22;64985;46.364;17.008;2023-10-09T04:53:21;7.40;99.90
76203;DHT22;64985;46.364;17.008;2023-10-09T04:56:23;7.40;99.90
76203;DHT22;64985;46.364;17.008;2023-10-09T04:59:26;7.40;99.90
76203;DHT22;64985;46.364;17.008;2023-10-09T05:02:29;7.30;99.90
76203;DHT22;64985;46.364;17.008;2023-10-09T05:05:39;7.30;99.90
76203;DHT22;64985;46.364;17.008;2023-10-09T05:08:46;7.20;99.90
76203;DHT22;64985;46.364;17.008;2023-10-09T05:11:49;7.20;99.90
76203;DHT22;64985;46.364;17.008;2023-10-09T05:14:54;7.20;99.90
76203;DHT22;64985;46.364;17.008;2023-10-09T05:18:15;7.20;99.90
76203;DHT22;64985;46.364;17.008;2023-10-09T05:21:18;7.10;99.90
76203;DHT22;64985;46.364;17.008;2023-10-09T05:24:33;7.10;99.90
76203;DHT22;64985;46.364;17.008;2023-10-09T05:27:46;7.10;99.90
76203;DHT22;64985;46.364;17.008;2023-10-09T05:30:54;7.10;99.90
76203;DHT22;64985;46.364;17.008;2023-10-09T05:34:32;7.10;99.90
76203;DHT22;64985;46.364;17.008;2023-10-09T05:37:53;7.20;99.90
76203;DHT22;64985;46.364;17.008;2023-10-09T05:41:03;7.20;99.90
76203;DHT22;64985;46.364;17.008;2023-10-09T05:44:28;7.30;99.90
76203;DHT22;64985;46.364;17.008;2023-10-09T05:47:53;7.20;99.90
76203;DHT22;64985;46.364;17.008;2023-10-09T05:50:56;7.20;99.90
76203;DHT22;64985;46.364;17.008;2023-10-09T05:54:19;7.30;99.90
76203;DHT22;64985;46.364;17.008;2023-10-09T05:57:59;7.50;99.90
76203;DHT22;64985;46.364;17.008;2023-10-09T06:01:20;7.60;99.90
76203;DHT22;64985;46.364;17.008;2023-10-09T06:04:41;7.60;99.90
76203;DHT22;64985;46.364;17.008;2023-10-09T06:08:02;7.70;99.90
76203;DHT22;64985;46.364;17.008;2023-10-09T06:11:10;7.80;99.90
76203;DHT22;64985;46.364;17.008;2023-10-09T06:14:30;8.00;99.90
76203;DHT22;64985;46.364;17.008;2023-10-09T06:17:33;8.10;99.90
76203;DHT22;64985;46.364;17.008;2023-10-09T06:20:45;8.20;99.90
76203;DHT22;64985;46.364;17.008;2023-10-09T06:24:21;8.40;99.90
76203;DHT22;64985;46.364;17.008;2023-10-09T06:27:33;8.60;99.90
76203;DHT22;64985;46.364;17.008;2023-10-09T06:30:35;8.60;99.90
76203;DHT22;64985;46.364;17.008;2023-10-09T06:33:38;8.80;99.90
76203;DHT22;64985;46.364;17.008;2023-10-09T06:37:00;8.90;99.90
76203;DHT22;64985;46.364;17.008;2023-10-09T06:40:21;9.10;99.90
76203;DHT22;64985;46.364;17.008;2023-10-09T06:43:41;9.20;99.90
76203;DHT22;64985;46.364;17.008;2023-10-09T06:46:50;9.40;99.90
76203;DHT22;64985;46.364;17.008;2023-10-09T06:49:54;9.50;99.90
76203;DHT22;64985;46.364;17.008;2023-10-09T06:53:15;9.60;99.90
76203;DHT22;64985;46.364;17.008;2023-10-09T06:56:28;9.90;99.90
76203;DHT22;64985;46.364;17.008;2023-10-09T06:59:31;10.00;99.90
76203;DHT22;64985;46.364;17.008;2023-10-09T07:02:53;10.20;99.90
76203;DHT22;64985;46.364;17.008;2023-10-09T07:06:06;10.40;99.90
76203;DHT22;64985;46.364;17.008;2023-10-09T07:09:27;10.60;99.90
76203;DHT22;64985;46.364;17.008;2023-10-09T07:12:45;10.80;99.90
76203;DHT22;64985;46.364;17.008;2023-10-09T07:15:55;11.10;99.90
76203;DHT22;64985;46.364;17.008;2023-10-09T07:19:16;11.30;99.90
76203;DHT22;64985;46.364;17.008;2023-10-09T07:22:47;11.50;99.90
76203;DHT22;64985;46.364;17.008;2023-10-09T07:26:05;11.80;99.90
76203;DHT22;64985;46.364;17.008;2023-10-09T07:29:20;12.00;99.90
76203;DHT22;64985;46.364;17.008;2023-10-09T07:32:25;12.10;99.90
76203;DHT22;64985;46.364;17.008;2023-10-09T07:35:31;12.60;99.90
76203;DHT22;64985;46.364;17.008;2023-10-09T07:38:46;13.20;99.90
76203;DHT22;64985;46.364;17.008;2023-10-09T07:41:57;13.40;96.00
76203;DHT22;64985;46.364;17.008;2023-10-09T07:45:17;13.50;96.10
76203;DHT22;64985;46.364;17.008;2023-10-09T07:48:23;13.60;93.50
76203;DHT22;64985;46.364;17.008;2023-10-09T07:51:28;13.60;90.80
76203;DHT22;64985;46.364;17.008;2023-10-09T07:54:33;13.60;91.40
76203;DHT22;64985;46.364;17.008;2023-10-09T07:57:36;13.80;91.10
76203;DHT22;64985;46.364;17.008;2023-10-09T08:00:42;13.80;92.10
76203;DHT22;64985;46.364;17.008;2023-10-09T08:04:05;13.60;93.30
76203;DHT22;64985;46.364;17.008;2023-10-09T08:07:14;13.60;91.50
76203;DHT22;64985;46.364;17.008;2023-10-09T08:10:56;13.60;91.20
76203;DHT22;64985;46.364;17.008;2023-10-09T08:14:16;14.10;91.90
76203;DHT22;64985;46.364;17.008;2023-10-09T08:17:24;14.30;90.10
76203;DHT22;64985;46.364;17.008;2023-10-09T08:20:30;14.30;90.30
76203;DHT22;64985;46.364;17.008;2023-10-09T08:23:52;14.20;88.60
76203;DHT22;64985;46.364;17.008;2023-10-09T08:26:54;13.90;91.20
76203;DHT22;64985;46.364;17.008;2023-10-09T08:30:17;13.70;90.40
76203;DHT22;64985;46.364;17.008;2023-10-09T08:33:29;13.80;90.30
76203;DHT22;64985;46.364;17.008;2023-10-09T08:36:46;14.00;87.90
76203;DHT22;64985;46.364;17.008;2023-10-09T08:39:54;14.40;86.50
76203;DHT22;64985;46.364;17.008;2023-10-09T08:43:04;14.70;88.10
76203;DHT22;64985;46.364;17.008;2023-10-09T08:46:10;15.10;82.50
76203;DHT22;64985;46.364;17.008;2023-10-09T08:49:15;15.20;80.10
76203;DHT22;64985;46.364;17.008;2023-10-09T08:52:18;15.30;80.10
76203;DHT22;64985;46.364;17.008;2023-10-09T08:55:21;15.70;78.90
76203;DHT22;64985;46.364;17.008;2023-10-09T08:58:24;15.80;77.90
76203;DHT22;64985;46.364;17.008;2023-10-09T09:01:28;16.10;79.90
76203;DHT22;64985;46.364;17.008;2023-10-09T09:04:39;16.90;77.60
76203;DHT22;64985;46.364;17.008;2023-10-09T09:07:42;17.00;75.70
76203;DHT22;64985;46.364;17.008;2023-10-09T09:10:44;16.90;74.90
76203;DHT22;64985;46.364;17.008;2023-10-09T09:14:02;16.70;75.00
76203;DHT22;64985;46.364;17.008;2023-10-09T09:17:08;16.40;72.60
76203;DHT22;64985;46.364;17.008;2023-10-09T09:20:24;16.50;73.30
76203;DHT22;64985;46.364;17.008;2023-10-09T09:23:36;16.70;72.70
76203;DHT22;64985;46.364;17.008;2023-10-09T09:26:39;17.20;71.90
76203;DHT22;64985;46.364;17.008;2023-10-09T09:29:47;17.40;73.40
76203;DHT22;64985;46.364;17.008;2023-10-09T09:32:56;17.90;70.60
76203;DHT22;64985;46.364;17.008;2023-10-09T09:36:17;17.90;70.50
76203;DHT22;64985;46.364;17.008;2023-10-09T09:39:25;17.60;61.00
76203;DHT22;64985;46.364;17.008;2023-10-09T09:42:47;17.20;63.70
76203;DHT22;64985;46.364;17.008;2023-10-09T09:45:53;16.60;62.40
76203;DHT22;64985;46.364;17.008;2023-10-09T09:48:57;16.50;64.60
76203;DHT22;64985;46.364;17.008;2023-10-09T09:52:02;17.10;64.90
76203;DHT22;64985;46.364;17.008;2023-10-09T09:55:09;17.20;63.70
76203;DHT22;64985;46.364;17.008;2023-10-09T09:58:26;17.00;63.90
76203;DHT22;64985;46.364;17.008;2023-10-09T10:01:45;17.10;64.50
76203;DHT22;64985;46.364;17.008;2023-10-09T10:05:02;17.00;66.20
76203;DHT22;64985;46.364;17.008;2023-10-09T10:08:08;17.00;67.10
76203;DHT22;64985;46.364;17.008;2023-10-09T10:11:46;16.90;65.60
76203;DHT22;64985;46.364;17.008;2023-10-09T10:14:56;17.10;66.60
76203;DHT22;64985;46.364;17.008;2023-10-09T10:21:14;17.60;64.30
76203;DHT22;64985;46.364;17.008;2023-10-09T10:28:19;17.60;65.10
76203;DHT22;64985;46.364;17.008;2023-10-09T10:31:58;17.90;64.30
76203;DHT22;64985;46.364;17.008;2023-10-09T10:35:03;18.10;65.00
76203;DHT22;64985;46.364;17.008;2023-10-09T10:38:28;18.00;65.60
76203;DHT22;64985;46.364;17.008;2023-10-09T10:41:56;19.00;64.00
76203;DHT22;64985;46.364;17.008;2023-10-09T10:45:03;19.50;62.90
76203;DHT22;64985;46.364;17.008;2023-10-09T10:48:26;19.50;64.10
76203;DHT22;64985;46.364;17.008;2023-10-09T10:51:39;19.80;63.30
76203;DHT22;64985;46.364;17.008;2023-10-09T10:54:42;19.80;60.60
76203;DHT22;64985;46.364;17.008;2023-10-09T10:57:45;19.40;61.90
76203;DHT22;64985;46.364;17.008;2023-10-09T11:01:15;19.80;60.80
76203;DHT22;64985;46.364;17.008;2023-10-09T11:04:22;19.80;62.00
76203;DHT22;64985;46.364;17.008;2023-10-09T11:07:39;19.20;63.60
76203;DHT22;64985;46.364;17.008;2023-10-09T11:10:43;18.90;62.70
76203;DHT22;64985;46.364;17.008;2023-10-09T11:13:52;19.00;64.60
76203;DHT22;64985;46.364;17.008;2023-10-09T11:16:56;19.30;65.40
76203;DHT22;64985;46.364;17.008;2023-10-09T11:20:06;20.60;64.00
76203;DHT22;64985;46.364;17.008;2023-10-09T11:23:27;20.20;61.20
76203;DHT22;64985;46.364;17.008;2023-10-09T11:26:40;19.80;63.90
76203;DHT22;64985;46.364;17.008;2023-10-09T11:29:48;19.30;63.50
76203;DHT22;64985;46.364;17.008;2023-10-09T11:33:04;19.00;63.90
76203;DHT22;64985;46.364;17.008;2023-10-09T11:36:07;19.70;63.60
76203;DHT22;64985;46.364;17.008;2023-10-09T11:39:24;20.10;61.10
76203;DHT22;64985;46.364;17.008;2023-10-09T11:42:34;20.40;63.70
76203;DHT22;64985;46.364;17.008;2023-10-09T11:45:49;20.30;60.90
76203;DHT22;64985;46.364;17.008;2023-10-09T11:49:08;20.00;61.40
76203;DHT22;64985;46.364;17.008;2023-10-09T11:52:31;19.80;61.60
76203;DHT22;64985;46.364;17.008;2023-10-09T11:55:40;19.60;63.50
76203;DHT22;64985;46.364;17.008;2023-10-09T11:58:43;19.40;61.50
76203;DHT22;64985;46.364;17.008;2023-10-09T12:01:46;19.40;64.90
76203;DHT22;64985;46.364;17.008;2023-10-09T12:04:55;19.30;62.50
76203;DHT22;64985;46.364;17.008;2023-10-09T12:08:01;19.20;64.10
76203;DHT22;64985;46.364;17.008;2023-10-09T12:11:04;19.30;63.20
76203;DHT22;64985;46.364;17.008;2023-10-09T12:14:11;19.70;64.60
76203;DHT22;64985;46.364;17.008;2023-10-09T12:17:13;20.00;64.10
76203;DHT22;64985;46.364;17.008;2023-10-09T12:20:16;20.30;62.60
76203;DHT22;64985;46.364;17.008;2023-10-09T12:23:34;21.10;62.80
76203;DHT22;64985;46.364;17.008;2023-10-09T12:26:38;21.60;59.50
76203;DHT22;64985;46.364;17.008;2023-10-09T12:29:43;21.80;60.00
76203;DHT22;64985;46.364;17.008;2023-10-09T12:32:50;22.00;64.00
76203;DHT22;64985;46.364;17.008;2023-10-09T12:35:54;22.20;59.90
76203;DHT22;64985;46.364;17.008;2023-10-09T12:39:03;22.10;59.20
76203;DHT22;64985;46.364;17.008;2023-10-09T12:42:05;21.90;60.50
76203;DHT22;64985;46.364;17.008;2023-10-09T12:45:11;22.00;63.60
76203;DHT22;64985;46.364;17.008;2023-10-09T12:48:14;22.00;60.20
76203;DHT22;64985;46.364;17.008;2023-10-09T12:51:17;22.20;63.90
76203;DHT22;64985;46.364;17.008;2023-10-09T12:54:19;22.40;60.40
76203;DHT22;64985;46.364;17.008;2023-10-09T12:57:30;22.00;58.90
76203;DHT22;64985;46.364;17.008;2023-10-09T13:00:38;21.90;58.70
76203;DHT22;64985;46.364;17.008;2023-10-09T13:03:46;22.40;59.70
76203;DHT22;64985;46.364;17.008;2023-10-09T13:06:52;23.40;59.20
76203;DHT22;64985;46.364;17.008;2023-10-09T13:09:56;23.70;56.80
76203;DHT22;64985;46.364;17.008;2023-10-09T13:13:10;24.10;55.70
76203;DHT22;64985;46.364;17.008;2023-10-09T13:16:16;24.40;56.30
76203;DHT22;64985;46.364;17.008;2023-10-09T13:19:25;24.50;57.40
76203;DHT22;64985;46.364;17.008;2023-10-09T13:22:28;24.60;58.70
76203;DHT22;64985;46.364;17.008;2023-10-09T13:25:32;25.20;59.50
76203;DHT22;64985;46.364;17.008;2023-10-09T13:28:42;25.60;58.00
76203;DHT22;64985;46.364;17.008;2023-10-09T13:31:47;25.80;57.80
76203;DHT22;64985;46.364;17.008;2023-10-09T13:34:50;26.00;57.80
76203;DHT22;64985;46.364;17.008;2023-10-09T13:37:52;26.20;55.90
76203;DHT22;64985;46.364;17.008;2023-10-09T13:40:58;25.80;53.80
76203;DHT22;64985;46.364;17.008;2023-10-09T13:44:03;26.00;55.70
76203;DHT22;64985;46.364;17.008;2023-10-09T13:47:06;26.00;55.20
76203;DHT22;64985;46.364;17.008;2023-10-09T13:50:11;26.10;56.50
76203;DHT22;64985;46.364;17.008;2023-10-09T13:53:13;26.30;55.40
76203;DHT22;64985;46.364;17.008;2023-10-09T13:56:19;26.50;55.30
76203;DHT22;64985;46.364;17.008;2023-10-09T13:59:21;26.90;53.20
76203;DHT22;64985;46.364;17.008;2023-10-09T14:02:27;27.10;56.10
76203;DHT22;64985;46.364;17.008;2023-10-09T14:05:31;26.80;54.40
76203;DHT22;64985;46.364;17.008;2023-10-09T14:08:33;26.10;53.50
76203;DHT22;64985;46.364;17.008;2023-10-09T14:11:35;25.00;55.00
76203;DHT22;64985;46.364;17.008;2023-10-09T14:14:45;23.80;59.60
76203;DHT22;64985;46.364;17.008;2023-10-09T14:17:51;22.90;59.50
76203;DHT22;64985;46.364;17.008;2023-10-09T14:21:04;22.50;60.00
76203;DHT22;64985;46.364;17.008;2023-10-09T14:24:08;22.00;59.60
76203;DHT22;64985;46.364;17.008;2023-10-09T14:27:23;21.80;65.30
76203;DHT22;64985;46.364;17.008;2023-10-09T14:30:29;21.50;68.40
76203;DHT22;64985;46.364;17.008;2023-10-09T14:33:38;21.30;69.40
76203;DHT22;64985;46.364;17.008;2023-10-09T14:36:42;20.90;71.40
76203;DHT22;64985;46.364;17.008;2023-10-09T14:39:46;20.50;74.00
76203;DHT22;64985;46.364;17.008;2023-10-09T14:42:51;20.30;76.70
76203;DHT22;64985;46.364;17.008;2023-10-09T14:45:58;20.00;77.90
76203;DHT22;64985;46.364;17.008;2023-10-09T14:49:01;19.90;75.10
76203;DHT22;64985;46.364;17.008;2023-10-09T14:52:07;19.80;77.20
76203;DHT22;64985;46.364;17.008;2023-10-09T14:55:10;19.60;78.50
76203;DHT22;64985;46.364;17.008;2023-10-09T14:58:14;19.40;84.00
76203;DHT22;64985;46.364;17.008;2023-10-09T15:01:17;19.10;83.30
76203;DHT22;64985;46.364;17.008;2023-10-09T15:04:22;18.90;85.30
76203;DHT22;64985;46.364;17.008;2023-10-09T15:07:27;18.80;88.70
76203;DHT22;64985;46.364;17.008;2023-10-09T15:10:49;18.70;88.80
76203;DHT22;64985;46.364;17.008;2023-10-09T15:13:54;18.50;88.20
76203;DHT22;64985;46.364;17.008;2023-10-09T15:16:58;18.40;91.30
76203;DHT22;64985;46.364;17.008;2023-10-09T15:20:00;18.20;92.50
76203;DHT22;64985;46.364;17.008;2023-10-09T15:23:04;18.10;96.90
76203;DHT22;64985;46.364;17.008;2023-10-09T15:26:08;17.90;98.30
76203;DHT22;64985;46.364;17.008;2023-10-09T15:29:10;17.70;99.40
76203;DHT22;64985;46.364;17.008;2023-10-09T15:32:13;17.60;99.20
76203;DHT22;64985;46.364;17.008;2023-10-09T15:35:27;17.40;98.30
76203;DHT22;64985;46.364;17.008;2023-10-09T15:38:30;17.30;99.90
76203;DHT22;64985;46.364;17.008;2023-10-09T15:41:33;17.20;98.50
76203;DHT22;64985;46.364;17.008;2023-10-09T15:44:36;17.00;99.50
76203;DHT22;64985;46.364;17.008;2023-10-09T15:47:39;16.80;99.90
76203;DHT22;64985;46.364;17.008;2023-10-09T15:50:45;16.60;99.90
76203;DHT22;64985;46.364;17.008;2023-10-09T15:53:51;16.50;99.90
76203;DHT22;64985;46.364;17.008;2023-10-09T15:56:55;16.40;99.90
76203;DHT22;64985;46.364;17.008;2023-10-09T16:00:14;16.30;99.90
76203;DHT22;64985;46.364;17.008;2023-10-09T16:03:20;16.20;99.90
76203;DHT22;64985;46.364;17.008;2023-10-09T16:06:22;16.10;99.90
76203;DHT22;64985;46.364;17.008;2023-10-09T16:09:29;16.00;99.90
76203;DHT22;64985;46.364;17.008;2023-10-09T16:12:34;16.00;99.90
76203;DHT22;64985;46.364;17.008;2023-10-09T16:15:41;15.90;99.90
76203;DHT22;64985;46.364;17.008;2023-10-09T16:18:45;15.80;99.90
76203;DHT22;64985;46.364;17.008;2023-10-09T16:21:47;15.70;99.90
76203;DHT22;64985;46.364;17.008;2023-10-09T16:24:50;15.60;99.90
76203;DHT22;64985;46.364;17.008;2023-10-09T16:27:53;15.60;99.90
76203;DHT22;64985;46.364;17.008;2023-10-09T16:30:58;15.50;99.90
76203;DHT22;64985;46.364;17.008;2023-10-09T16:34:05;15.40;99.90
76203;DHT22;64985;46.364;17.008;2023-10-09T16:37:09;15.30;99.90
76203;DHT22;64985;46.364;17.008;2023-10-09T16:40:13;15.30;99.90
76203;DHT22;64985;46.364;17.008;2023-10-09T16:43:16;15.20;99.90
76203;DHT22;64985;46.364;17.008;2023-10-09T16:46:20;15.20;99.90
76203;DHT22;64985;46.364;17.008;2023-10-09T16:49:25;15.10;99.90
76203;DHT22;64985;46.364;17.008;2023-10-09T16:52:27;15.00;99.90
76203;DHT22;64985;46.364;17.008;2023-10-09T16:55:32;15.10;99.90
76203;DHT22;64985;46.364;17.008;2023-10-09T16:58:39;15.00;99.90
76203;DHT22;64985;46.364;17.008;2023-10-09T17:01:44;14.80;99.90
76203;DHT22;64985;46.364;17.008;2023-10-09T17:04:47;14.70;99.90
76203;DHT22;64985;46.364;17.008;2023-10-09T17:07:53;14.70;99.90
76203;DHT22;64985;46.364;17.008;2023-10-09T17:10:56;14.70;99.90
76203;DHT22;64985;46.364;17.008;2023-10-09T17:13:59;14.70;99.90
76203;DHT22;64985;46.364;17.008;2023-10-09T17:17:02;14.70;99.90
76203;DHT22;64985;46.364;17.008;2023-10-09T17:20:12;14.70;99.90
76203;DHT22;64985;46.364;17.008;2023-10-09T17:23:15;14.70;99.90
76203;DHT22;64985;46.364;17.008;2023-10-09T17:26:19;14.70;99.90
76203;DHT22;64985;46.364;17.008;2023-10-09T17:29:25;14.60;99.90
76203;DHT22;64985;46.364;17.008;2023-10-09T17:32:29;14.60;99.90
76203;DHT22;64985;46.364;17.008;2023-10-09T17:35:33;14.50;99.90
76203;DHT22;64985;46.364;17.008;2023-10-09T17:38:36;14.40;99.90
76203;DHT22;64985;46.364;17.008;2023-10-09T17:41:40;14.40;99.90
76203;DHT22;64985;46.364;17.008;2023-10-09T17:44:43;14.30;99.90
76203;DHT22;64985;46.364;17.008;2023-10-09T17:47:46;14.30;99.90
76203;DHT22;64985;46.364;17.008;2023-10-09T17:50:57;14.30;99.90
76203;DHT22;64985;46.364;17.008;2023-10-09T17:54:03;14.20;99.90
76203;DHT22;64985;46.364;17.008;2023-10-09T17:57:07;14.30;99.90
76203;DHT22;64985;46.364;17.008;2023-10-09T18:00:12;14.20;99.90
76203;DHT22;64985;46.364;17.008;2023-10-09T18:03:26;14.20;99.90
76203;DHT22;64985;46.364;17.008;2023-10-09T18:06:31;14.20;99.90
76203;DHT22;64985;46.364;17.008;2023-10-09T18:09:38;14.20;99.90
76203;DHT22;64985;46.364;17.008;2023-10-09T18:12:42;14.30;99.90
76203;DHT22;64985;46.364;17.008;2023-10-09T18:15:47;14.20;99.90
76203;DHT22;64985;46.364;17.008;2023-10-09T18:18:53;14.10;99.90
76203;DHT22;64985;46.364;17.008;2023-10-09T18:21:58;14.10;99.90
76203;DHT22;64985;46.364;17.008;2023-10-09T18:25:03;14.10;99.90
76203;DHT22;64985;46.364;17.008;2023-10-09T18:28:08;14.00;99.90
76203;DHT22;64985;46.364;17.008;2023-10-09T18:31:13;13.90;99.90
76203;DHT22;64985;46.364;17.008;2023-10-09T18:34:19;14.00;99.90
76203;DHT22;64985;46.364;17.008;2023-10-09T18:37:26;14.00;99.90
76203;DHT22;64985;46.364;17.008;2023-10-09T18:40:30;14.00;99.90
76203;DHT22;64985;46.364;17.008;2023-10-09T18:43:35;14.00;99.90
76203;DHT22;64985;46.364;17.008;2023-10-09T18:46:43;14.00;99.90
76203;DHT22;64985;46.364;17.008;2023-10-09T18:49:47;13.90;99.90
76203;DHT22;64985;46.364;17.008;2023-10-09T18:52:53;13.90;99.90
76203;DHT22;64985;46.364;17.008;2023-10-09T18:55:57;13.90;99.90
76203;DHT22;64985;46.364;17.008;2023-10-09T18:59:03;13.90;99.90
76203;DHT22;64985;46.364;17.008;2023-10-09T19:02:12;13.80;99.90
76203;DHT22;64985;46.364;17.008;2023-10-09T19:05:19;13.80;99.90
76203;DHT22;64985;46.364;17.008;2023-10-09T19:08:23;13.80;99.90
76203;DHT22;64985;46.364;17.008;2023-10-09T19:11:30;13.70;99.90
76203;DHT22;64985;46.364;17.008;2023-10-09T19:14:34;13.70;99.90
76203;DHT22;64985;46.364;17.008;2023-10-09T19:17:38;13.70;99.90
76203;DHT22;64985;46.364;17.008;2023-10-09T19:20:42;13.70;99.90
76203;DHT22;64985;46.364;17.008;2023-10-09T19:23:46;13.70;99.90
76203;DHT22;64985;46.364;17.008;2023-10-09T19:26:50;13.70;99.90
76203;DHT22;64985;46.364;17.008;2023-10-09T19:29:54;13.70;99.90
76203;DHT22;64985;46.364;17.008;2023-10-09T19:32:59;13.60;99.90
76203;DHT22;64985;46.364;17.008;2023-10-09T19:36:08;13.60;99.90
76203;DHT22;64985;46.364;17.008;2023-10-09T19:39:15;13.60;99.90
76203;DHT22;64985;46.364;17.008;2023-10-09T19:42:20;13.60;99.90
76203;DHT22;64985;46.364;17.008;2023-10-09T19:45:24;13.60;99.90